createdAt,value
2023-03-29T00:00:50.212Z,1.37
2023-03-29T00:03:22.630Z,1.40
2023-03-29T00:06:00.634Z,1.28
2023-03-29T00:08:34.368Z,1.16
2023-03-29T00:11:05.488Z,1.24
2023-03-29T00:17:20.418Z,1.25
2023-03-29T00:19:48.699Z,1.27
2023-03-29T00:22:45.393Z,1.28
2023-03-29T00:25:18.642Z,1.32
2023-03-29T00:27:49.374Z,1.27
2023-03-29T00:30:18.616Z,1.23
2023-03-29T00:32:47.416Z,1.23
2023-03-29T00:35:14.610Z,1.13
2023-03-29T00:37:43.885Z,1.18
2023-03-29T00:40:13.271Z,1.11
2023-03-29T00:42:44.102Z,1.12
2023-03-29T00:45:11.944Z,1.11
2023-03-29T00:47:48.505Z,1.13
2023-03-29T00:50:18.959Z,1.07
2023-03-29T00:52:48.686Z,1.02
2023-03-29T00:55:18.907Z,1.05
2023-03-29T00:57:46.938Z,1.05
2023-03-29T01:00:18.311Z,1.03
2023-03-29T01:02:51.665Z,0.93
2023-03-29T01:05:26.068Z,0.86
2023-03-29T01:08:25.751Z,0.79
2023-03-29T01:11:12.211Z,0.71
2023-03-29T01:13:47.052Z,0.67
2023-03-29T01:16:14.577Z,0.59
2023-03-29T01:18:42.955Z,0.61
2023-03-29T01:21:12.914Z,0.54
2023-03-29T01:23:47.663Z,0.48
2023-03-29T01:26:30.571Z,0.52
2023-03-29T01:29:09.248Z,0.49
2023-03-29T01:31:39.360Z,0.59
2023-03-29T01:34:28.490Z,0.53
2023-03-29T01:37:00.447Z,0.50
2023-03-29T01:39:27.902Z,0.57
2023-03-29T01:41:56.880Z,0.56
2023-03-29T01:44:31.758Z,0.53
2023-03-29T01:47:05.574Z,0.50
2023-03-29T01:49:42.333Z,0.48
2023-03-29T01:52:15.028Z,0.49
2023-03-29T01:54:47.035Z,0.42
2023-03-29T01:57:16.248Z,0.52
2023-03-29T01:59:47.734Z,0.48
2023-03-29T02:02:16.144Z,0.48
2023-03-29T02:04:51.876Z,0.44
2023-03-29T02:07:21.474Z,0.46
2023-03-29T02:09:52.725Z,0.39
2023-03-29T02:12:20.252Z,0.38
2023-03-29T02:14:49.906Z,0.40
2023-03-29T02:17:18.517Z,0.31
2023-03-29T02:19:50.335Z,0.29
2023-03-29T02:22:28.643Z,0.24
2023-03-29T02:24:59.383Z,0.28
2023-03-29T02:27:31.040Z,0.29
2023-03-29T02:30:01.357Z,0.20
2023-03-29T02:32:46.702Z,0.15
2023-03-29T02:35:18.367Z,0.13
2023-03-29T02:37:54.605Z,0.07
2023-03-29T02:40:26.560Z,0.11
2023-03-29T02:42:58.495Z,0.07
2023-03-29T02:45:28.209Z,0.01
2023-03-29T02:47:57.319Z,0.02
2023-03-29T02:50:28.983Z,-0.07
2023-03-29T02:53:00.149Z,-0.03
2023-03-29T02:55:35.310Z,-0.09
2023-03-29T02:58:09.414Z,-0.14
2023-03-29T03:00:41.472Z,-0.17
2023-03-29T03:03:09.779Z,-0.13
2023-03-29T03:05:39.499Z,-0.18
2023-03-29T03:08:08.546Z,-0.25
2023-03-29T03:10:37.847Z,-0.23
2023-03-29T03:13:06.957Z,-0.25
2023-03-29T03:15:37.558Z,-0.17
2023-03-29T03:18:04.761Z,-0.18
2023-03-29T03:20:36.032Z,-0.17
2023-03-29T03:23:05.729Z,-0.20
2023-03-29T03:25:35.954Z,-0.17
2023-03-29T03:28:03.105Z,-0.17
2023-03-29T03:30:37.879Z,-0.17
2023-03-29T03:33:18.051Z,-0.17
2023-03-29T03:36:11.435Z,-0.18
2023-03-29T03:38:40.368Z,-0.12
2023-03-29T03:41:09.564Z,-0.08
2023-03-29T03:43:38.175Z,-0.03
2023-03-29T03:46:08.722Z,-0.05
2023-03-29T03:48:37.417Z,0.02
2023-03-29T03:51:27.237Z,-0.04
2023-03-29T03:53:54.351Z,-0.02
2023-03-29T03:56:38.504Z,0.02
2023-03-29T03:59:17.524Z,0.12
2023-03-29T04:02:07.957Z,0.03
2023-03-29T04:04:38.055Z,0.06
2023-03-29T04:07:18.108Z,0.10
2023-03-29T04:10:20.917Z,0.13
2023-03-29T04:12:56.837Z,0.15
2023-03-29T04:15:24.738Z,0.17
2023-03-29T04:18:00.779Z,0.21
2023-03-29T04:20:36.125Z,0.32
2023-03-29T04:23:04.952Z,0.36
2023-03-29T04:25:32.805Z,0.36
2023-03-29T04:28:18.771Z,0.40
2023-03-29T04:31:03.202Z,0.39
2023-03-29T04:33:59.137Z,0.42
2023-03-29T04:36:33.769Z,0.48
2023-03-29T04:39:04.766Z,0.52
2023-03-29T04:41:36.828Z,0.57
2023-03-29T04:44:46.886Z,0.61
2023-03-29T04:47:21.426Z,0.54
2023-03-29T04:50:01.873Z,0.56
2023-03-29T04:52:40.182Z,0.61
2023-03-29T04:55:34.594Z,0.65
2023-03-29T04:58:04.941Z,0.73
2023-03-29T05:00:38.102Z,0.77
2023-03-29T05:04:06.420Z,0.82
2023-03-29T05:09:48.998Z,0.99
2023-03-29T05:12:22.783Z,1.04
2023-03-29T05:15:00.055Z,1.06
2023-03-29T05:17:34.993Z,1.16
2023-03-29T05:20:11.919Z,1.22
2023-03-29T05:22:42.178Z,1.29
2023-03-29T05:25:13.598Z,1.33
2023-03-29T05:27:46.002Z,1.48
2023-03-29T05:30:15.485Z,1.50
2023-03-29T05:33:01.828Z,1.57
2023-03-29T05:35:31.525Z,1.70
2023-03-29T05:38:01.886Z,1.65
2023-03-29T05:40:29.803Z,1.67
2023-03-29T05:43:18.825Z,1.76
2023-03-29T05:45:47.072Z,1.77
2023-03-29T05:48:14.429Z,1.83
2023-03-29T05:50:47.630Z,1.83
2023-03-29T05:53:18.375Z,2.73
2023-03-29T05:55:46.763Z,3.84
2023-03-29T05:58:20.319Z,5.40
2023-03-29T06:00:52.325Z,5.71
2023-03-29T06:03:43.644Z,5.45
2023-03-29T06:06:11.107Z,5.78
2023-03-29T06:10:18.898Z,4.91
2023-03-29T06:12:54.684Z,4.65
2023-03-29T06:15:26.468Z,5.21
2023-03-29T06:18:19.467Z,5.01
2023-03-29T06:20:50.419Z,4.53
2023-03-29T06:23:24.374Z,4.72
2023-03-29T06:25:52.003Z,5.90
2023-03-29T06:28:21.363Z,5.96
2023-03-29T06:30:55.117Z,6.06
2023-03-29T06:33:34.476Z,6.19
2023-03-29T06:36:19.535Z,5.93
2023-03-29T06:38:51.671Z,5.45
2023-03-29T06:41:36.915Z,6.80
2023-03-29T06:44:28.489Z,6.39
2023-03-29T06:47:04.424Z,6.55
2023-03-29T06:49:35.563Z,6.97
2023-03-29T06:52:27.253Z,6.02
2023-03-29T06:55:03.416Z,6.05
2023-03-29T06:57:36.196Z,6.69
2023-03-29T07:00:31.128Z,7.07
2023-03-29T07:03:25.615Z,6.48
2023-03-29T07:06:04.688Z,7.63
2023-03-29T07:08:47.046Z,8.50
2023-03-29T07:11:31.687Z,8.52
2023-03-29T07:14:08.187Z,8.25
2023-03-29T07:16:37.841Z,8.25
2023-03-29T07:19:16.626Z,8.10
2023-03-29T07:21:57.104Z,8.40
2023-03-29T07:24:37.648Z,8.33
2023-03-29T07:27:05.302Z,8.00
2023-03-29T07:29:34.222Z,7.25
2023-03-29T07:32:01.754Z,7.39
2023-03-29T07:34:44.449Z,7.11
2023-03-29T07:37:24.784Z,8.01
2023-03-29T07:39:54.085Z,7.57
2023-03-29T07:42:44.290Z,7.19
2023-03-29T07:45:17.137Z,8.31
2023-03-29T07:47:59.813Z,9.72
2023-03-29T07:50:33.636Z,8.43
2023-03-29T07:53:05.286Z,7.32
2023-03-29T07:55:36.700Z,8.28
2023-03-29T07:58:27.581Z,9.84
2023-03-29T08:00:55.141Z,9.44
2023-03-29T08:03:46.687Z,10.14
2023-03-29T08:06:16.232Z,10.19
2023-03-29T08:08:44.206Z,10.00
2023-03-29T08:11:15.439Z,9.20
2023-03-29T08:13:59.102Z,8.61
2023-03-29T08:16:27.183Z,8.82
2023-03-29T08:19:09.105Z,10.20
2023-03-29T08:22:02.244Z,9.39
2023-03-29T08:24:39.980Z,9.63
2023-03-29T08:27:08.369Z,8.95
2023-03-29T08:29:36.398Z,9.78
2023-03-29T08:32:05.552Z,10.86
2023-03-29T08:34:35.576Z,10.31
2023-03-29T08:37:17.786Z,10.61
2023-03-29T08:39:48.632Z,10.77
2023-03-29T08:43:04.935Z,9.52
2023-03-29T08:46:12.079Z,9.06
2023-03-29T08:48:44.741Z,8.94
2023-03-29T08:51:14.571Z,9.13
2023-03-29T08:54:02.440Z,9.08
2023-03-29T08:56:46.995Z,9.75
2023-03-29T08:59:29.516Z,10.21
2023-03-29T09:01:59.400Z,10.39
2023-03-29T09:04:35.099Z,10.10
2023-03-29T09:07:11.596Z,10.43
2023-03-29T09:09:43.647Z,10.36
2023-03-29T09:12:44.244Z,10.53
2023-03-29T09:15:22.299Z,10.79
2023-03-29T09:18:37.807Z,10.35
2023-03-29T09:21:22.555Z,10.60
2023-03-29T09:24:15.871Z,10.58
2023-03-29T09:27:11.140Z,10.05
2023-03-29T09:30:14.740Z,10.52
2023-03-29T09:32:53.275Z,10.89
2023-03-29T09:35:38.362Z,10.38
2023-03-29T09:38:12.607Z,10.74
2023-03-29T09:40:46.874Z,10.23
2023-03-29T09:43:37.997Z,9.85
2023-03-29T09:46:24.391Z,10.24
2023-03-29T09:48:54.827Z,10.01
2023-03-29T09:51:27.263Z,9.45
2023-03-29T09:54:00.241Z,10.27
2023-03-29T09:56:46.237Z,10.92
2023-03-29T09:59:17.331Z,10.27
2023-03-29T10:01:45.992Z,11.19
2023-03-29T10:04:16.943Z,11.68
2023-03-29T10:06:52.835Z,11.25
2023-03-29T10:09:23.396Z,11.29
2023-03-29T10:11:58.594Z,11.78
2023-03-29T10:14:31.975Z,11.70
2023-03-29T10:16:59.830Z,11.84
2023-03-29T10:19:34.962Z,12.10
2023-03-29T10:22:14.394Z,11.82
2023-03-29T10:24:49.382Z,12.69
2023-03-29T10:27:23.382Z,12.35
2023-03-29T10:29:52.148Z,12.82
2023-03-29T10:32:37.886Z,13.31
2023-03-29T10:35:29.450Z,14.05
2023-03-29T10:38:01.602Z,13.08
2023-03-29T10:40:41.915Z,12.78
2023-03-29T10:43:35.087Z,12.96
2023-03-29T10:46:19.695Z,12.97
2023-03-29T10:48:55.906Z,13.61
2023-03-29T10:51:25.460Z,13.79
2023-03-29T10:53:53.434Z,13.93
2023-03-29T10:56:39.175Z,14.31
2023-03-29T10:59:17.105Z,14.62
2023-03-29T11:02:25.311Z,14.41
2023-03-29T11:05:06.137Z,14.91
2023-03-29T11:08:18.328Z,13.61
2023-03-29T11:10:50.520Z,12.99
2023-03-29T11:13:23.716Z,13.30
2023-03-29T11:16:05.407Z,13.71
2023-03-29T11:19:16.291Z,14.52
2023-03-29T11:22:13.012Z,14.96
2023-03-29T11:25:02.801Z,13.80
2023-03-29T11:27:57.845Z,13.20
2023-03-29T11:30:38.472Z,14.02
2023-03-29T11:33:37.631Z,13.96
2023-03-29T11:36:11.936Z,14.02
2023-03-29T11:38:51.159Z,14.12
2023-03-29T11:41:23.506Z,13.97
2023-03-29T11:44:08.770Z,13.82
2023-03-29T11:46:43.733Z,13.77
2023-03-29T11:49:21.553Z,14.63
2023-03-29T11:51:58.395Z,14.23
2023-03-29T11:54:41.274Z,14.30
2023-03-29T11:57:15.018Z,13.15
2023-03-29T11:59:57.106Z,12.76
2023-03-29T12:02:53.915Z,12.88
2023-03-29T12:05:28.182Z,13.06
2023-03-29T12:07:58.980Z,14.25
2023-03-29T12:10:37.769Z,15.06
2023-03-29T12:13:29.412Z,15.19
2023-03-29T12:16:26.439Z,15.59
2023-03-29T12:19:01.542Z,15.47
2023-03-29T12:21:31.195Z,16.27
2023-03-29T12:23:59.471Z,16.42
2023-03-29T12:26:47.460Z,16.36
2023-03-29T12:29:43.842Z,15.93
2023-03-29T12:32:41.816Z,15.91
2023-03-29T12:36:06.071Z,14.98
2023-03-29T12:38:52.858Z,14.20
2023-03-29T12:41:41.823Z,12.73
2023-03-29T12:44:28.316Z,12.57
2023-03-29T12:47:02.203Z,11.90
2023-03-29T12:49:34.365Z,12.06
2023-03-29T12:52:07.211Z,11.75
2023-03-29T12:54:34.823Z,11.33
2023-03-29T12:57:21.916Z,11.58
2023-03-29T12:59:49.927Z,11.26
2023-03-29T13:02:18.199Z,11.04
2023-03-29T13:04:57.359Z,11.29
2023-03-29T13:07:26.512Z,11.38
2023-03-29T13:09:58.263Z,11.45
2023-03-29T13:12:46.209Z,11.82
2023-03-29T13:15:17.047Z,12.09
2023-03-29T13:18:20.580Z,12.53
2023-03-29T13:21:07.819Z,12.66
2023-03-29T13:23:57.218Z,13.24
2023-03-29T13:26:37.492Z,13.65
2023-03-29T13:29:16.926Z,14.10
2023-03-29T13:31:52.356Z,14.51
2023-03-29T13:35:07.022Z,14.67
2023-03-29T13:37:57.507Z,14.86
2023-03-29T13:40:47.983Z,15.51
2023-03-29T13:43:30.884Z,15.26
2023-03-29T13:45:58.089Z,15.00
2023-03-29T13:49:01.677Z,14.81
2023-03-29T13:51:37.062Z,14.52
2023-03-29T13:54:43.106Z,13.35
2023-03-29T13:57:10.218Z,14.10
2023-03-29T13:59:49.847Z,14.21
2023-03-29T14:02:32.971Z,14.06
2023-03-29T14:05:04.272Z,13.88
2023-03-29T14:07:34.349Z,14.31
2023-03-29T14:10:02.875Z,14.60
2023-03-29T14:12:35.631Z,14.80
2023-03-29T14:15:06.358Z,14.69
2023-03-29T14:17:36.591Z,14.43
2023-03-29T14:20:09.812Z,14.23
2023-03-29T14:22:37.960Z,13.26
2023-03-29T14:25:15.657Z,13.20
2023-03-29T14:27:43.191Z,13.21
2023-03-29T14:30:28.992Z,13.58
2023-03-29T14:32:56.893Z,13.00
2023-03-29T14:35:31.631Z,13.26
2023-03-29T14:37:59.980Z,13.47
2023-03-29T14:40:27.978Z,13.35
2023-03-29T14:42:55.733Z,13.60
2023-03-29T14:45:27.647Z,14.11
2023-03-29T14:48:14.332Z,13.85
2023-03-29T14:50:53.735Z,13.30
2023-03-29T14:54:02.313Z,13.27
2023-03-29T14:57:27.404Z,13.17
2023-03-29T15:00:24.836Z,13.12
2023-03-29T15:03:03.156Z,13.10
2023-03-29T15:06:06.268Z,12.94
2023-03-29T15:09:01.501Z,13.07
2023-03-29T15:11:34.036Z,12.87
2023-03-29T15:14:18.401Z,12.67
2023-03-29T15:16:56.212Z,12.52
2023-03-29T15:19:29.385Z,12.22
2023-03-29T15:22:27.740Z,12.18
2023-03-29T15:25:33.095Z,12.22
2023-03-29T15:28:03.290Z,11.52
2023-03-29T15:31:00.758Z,11.76
2023-03-29T15:34:13.388Z,11.65
2023-03-29T15:36:47.653Z,11.62
2023-03-29T15:39:29.884Z,11.54
2023-03-29T15:41:59.607Z,11.66
2023-03-29T15:44:39.538Z,11.63
2023-03-29T15:47:41.451Z,11.71
2023-03-29T15:50:21.373Z,11.57
2023-03-29T15:53:14.259Z,11.25
2023-03-29T15:56:02.415Z,11.40
2023-03-29T15:58:50.703Z,11.37
2023-03-29T16:01:41.963Z,11.32
2023-03-29T16:04:23.839Z,11.35
2023-03-29T16:07:01.482Z,10.99
2023-03-29T16:09:29.679Z,10.72
2023-03-29T16:12:23.867Z,10.62
2023-03-29T16:14:57.240Z,10.42
2023-03-29T16:17:37.086Z,10.24
2023-03-29T16:20:21.707Z,10.11
2023-03-29T16:23:07.323Z,10.00
2023-03-29T16:25:37.645Z,10.03
2023-03-29T16:28:18.919Z,10.01
2023-03-29T16:30:55.204Z,9.97
2023-03-29T16:33:36.901Z,10.01
2023-03-29T16:36:08.244Z,9.88
2023-03-29T16:38:43.752Z,9.93
2023-03-29T16:41:22.454Z,10.05
2023-03-29T16:44:06.460Z,9.86
2023-03-29T16:46:39.330Z,9.78
2023-03-29T16:49:36.764Z,9.56
2023-03-29T16:52:06.741Z,9.44
2023-03-29T16:54:33.966Z,9.46
2023-03-29T16:57:07.243Z,9.46
2023-03-29T16:59:36.422Z,9.46
2023-03-29T17:02:05.089Z,9.39
2023-03-29T17:04:40.060Z,9.18
2023-03-29T17:07:14.162Z,8.93
2023-03-29T17:10:08.391Z,8.84
2023-03-29T17:12:40.229Z,8.87
2023-03-29T17:15:12.153Z,8.80
2023-03-29T17:17:42.408Z,8.73
2023-03-29T17:20:12.714Z,8.78
2023-03-29T17:22:42.146Z,8.59
2023-03-29T17:25:10.135Z,8.41
2023-03-29T17:27:41.871Z,8.42
2023-03-29T17:30:12.322Z,8.44
2023-03-29T17:32:45.893Z,8.41
2023-03-29T17:35:15.480Z,8.48
2023-03-29T17:37:46.342Z,8.46
2023-03-29T17:40:14.483Z,8.52
2023-03-29T17:42:50.317Z,8.51
2023-03-29T17:48:06.589Z,8.35
2023-03-29T17:50:37.850Z,8.36
2023-03-29T17:53:14.118Z,8.33
2023-03-29T17:55:45.064Z,8.39
2023-03-29T17:58:18.990Z,8.36
2023-03-29T18:00:49.867Z,8.38
2023-03-29T18:03:17.562Z,8.32
2023-03-29T18:06:14.537Z,8.26
2023-03-29T18:09:05.776Z,8.20
2023-03-29T18:11:59.376Z,8.11
2023-03-29T18:14:43.416Z,7.97
2023-03-29T18:17:15.416Z,7.92
2023-03-29T18:19:51.608Z,7.93
2023-03-29T18:22:24.249Z,7.85
2023-03-29T18:24:59.745Z,7.70
2023-03-29T18:28:04.229Z,7.57
2023-03-29T18:30:56.343Z,7.64
2023-03-29T18:33:23.983Z,7.68
2023-03-29T18:35:53.886Z,7.74
2023-03-29T18:38:43.820Z,7.84
2023-03-29T18:41:37.441Z,7.81
2023-03-29T18:44:14.185Z,7.86
2023-03-29T18:46:55.029Z,7.79
2023-03-29T18:50:02.799Z,7.76
2023-03-29T18:52:55.658Z,7.78
2023-03-29T18:55:25.591Z,7.76
2023-03-29T18:58:20.448Z,7.81
2023-03-29T19:01:16.836Z,7.70
2023-03-29T19:04:03.686Z,7.70
2023-03-29T19:08:07.176Z,7.72
2023-03-29T19:11:06.241Z,7.69
2023-03-29T19:13:40.402Z,7.69
2023-03-29T19:16:13.974Z,7.66
2023-03-29T19:19:08.070Z,7.79
2023-03-29T19:21:50.087Z,7.73
2023-03-29T19:25:36.380Z,7.83
2023-03-29T19:28:05.654Z,7.83
2023-03-29T19:31:15.954Z,7.82
2023-03-29T19:33:49.696Z,7.78
2023-03-29T19:36:18.748Z,7.81
2023-03-29T19:38:50.209Z,7.79
2023-03-29T19:41:18.697Z,7.74
2023-03-29T19:44:21.929Z,7.72
2023-03-29T19:47:20.951Z,7.75
2023-03-29T19:49:51.708Z,7.73
2023-03-29T19:52:46.032Z,7.76
2023-03-29T19:55:45.688Z,7.64
2023-03-29T19:58:14.805Z,7.54
2023-03-29T20:00:47.175Z,7.55
2023-03-29T20:06:45.234Z,7.60
2023-03-29T20:09:46.673Z,7.57
2023-03-29T20:12:20.773Z,7.55
2023-03-29T20:14:56.700Z,7.58
2023-03-29T20:17:26.890Z,7.61
2023-03-29T20:19:55.630Z,7.53
2023-03-29T20:22:30.722Z,7.50
2023-03-29T20:24:59.694Z,7.53
2023-03-29T20:27:32.692Z,7.48
2023-03-29T20:30:52.173Z,7.38
2023-03-29T20:33:49.182Z,7.33
2023-03-29T20:36:23.268Z,7.33
2023-03-29T20:38:56.361Z,7.30
2023-03-29T20:41:27.859Z,7.12
2023-03-29T20:44:28.513Z,7.23
2023-03-29T20:47:05.189Z,7.30
2023-03-29T20:49:55.497Z,7.19
2023-03-29T20:52:36.063Z,7.24
2023-03-29T20:55:07.263Z,7.23
2023-03-29T20:57:38.484Z,7.25
2023-03-29T21:00:13.123Z,7.26
2023-03-29T21:06:44.335Z,7.31
2023-03-29T21:10:10.199Z,7.29
2023-03-29T21:13:09.575Z,7.25
2023-03-29T21:16:08.185Z,7.26
2023-03-29T21:19:02.452Z,7.25
2023-03-29T21:21:33.810Z,7.31
2023-03-29T21:24:05.910Z,7.40
2023-03-29T21:26:36.934Z,7.45
2023-03-29T21:29:11.344Z,7.36
2023-03-29T21:31:41.382Z,7.36
2023-03-29T21:34:16.005Z,7.37
2023-03-29T21:36:48.228Z,7.30
2023-03-29T21:39:42.497Z,7.18
2023-03-29T21:42:17.253Z,7.27
2023-03-29T21:44:49.126Z,7.21
2023-03-29T21:47:20.261Z,7.16
2023-03-29T21:49:48.418Z,7.27
2023-03-29T21:52:40.724Z,7.19
2023-03-29T21:55:37.584Z,7.18
2023-03-29T21:58:06.726Z,7.04
2023-03-29T22:00:38.804Z,6.99
2023-03-29T22:03:08.784Z,6.95
2023-03-29T22:05:46.623Z,6.93
2023-03-29T22:08:14.196Z,6.89
2023-03-29T22:10:45.558Z,6.90
2023-03-29T22:13:40.841Z,6.87
2023-03-29T22:16:15.172Z,6.90
2023-03-29T22:18:55.710Z,6.97
2023-03-29T22:21:41.060Z,6.92
2023-03-29T22:24:09.490Z,6.95
2023-03-29T22:26:38.127Z,6.95
2023-03-29T22:29:15.724Z,6.94
2023-03-29T22:31:43.326Z,6.95
2023-03-29T22:34:10.606Z,6.98
2023-03-29T22:36:40.418Z,6.99
2023-03-29T22:39:08.123Z,6.98
2023-03-29T22:41:36.219Z,6.98
2023-03-29T22:44:03.954Z,6.84
2023-03-29T22:46:32.292Z,6.84
2023-03-29T22:49:03.046Z,6.80
2023-03-29T22:51:30.760Z,6.83
2023-03-29T22:53:58.442Z,6.89
2023-03-29T22:56:27.323Z,6.93
2023-03-29T22:58:55.276Z,6.79
2023-03-29T23:01:27.428Z,6.83
2023-03-29T23:04:21.173Z,6.84
2023-03-29T23:06:48.714Z,6.91
2023-03-29T23:09:16.597Z,6.83
2023-03-29T23:11:44.348Z,6.92
2023-03-29T23:14:12.249Z,6.89
2023-03-29T23:16:40.240Z,6.86
2023-03-29T23:19:07.499Z,6.98
2023-03-29T23:21:36.187Z,7.04
2023-03-29T23:24:03.678Z,7.02
2023-03-29T23:26:31.222Z,6.98
2023-03-29T23:28:59.716Z,7.04
2023-03-29T23:31:27.672Z,6.96
2023-03-29T23:34:00.633Z,7.02
2023-03-29T23:36:31.613Z,7.08
2023-03-29T23:38:59.668Z,7.00
2023-03-29T23:41:29.195Z,7.04
2023-03-29T23:44:03.753Z,6.99
2023-03-29T23:46:40.556Z,6.87
2023-03-29T23:49:11.938Z,6.81
2023-03-29T23:52:14.850Z,6.89
2023-03-29T23:54:45.803Z,6.80
2023-03-29T23:57:17.875Z,6.80
2023-03-29T23:59:46.974Z,6.80
